Time;durP1;ratioP1;P1;durP2;ratioP2;P2;SDS_P1;SDS_P2;PMS_P1;PMS_P2;Temp;Humidity;BMP_temperature;BMP_pressure;BME280_temperature;BME280_humidity;BME280_pressure;Samples;Min_cycle;Max_cycle;Signal;HPM_P1;HPM_P2
2024/03/31 00:00:53;;;;;;;21.15;4.65;;;;;;;;;;5015046;28;20064;-65
2024/03/31 00:03:19;;;;;;;30.98;4.65;;;;;;;;;;5014691;28;20049;-65
2024/03/31 00:05:44;;;;;;;24.88;4.60;;;;;;;;;;5036368;23;20107;-62
2024/03/31 00:08:10;;;;;;;20.52;3.83;;;;;;;;;;5042508;23;20480;-62
2024/03/31 00:10:36;;;;;;;26.27;3.72;;;;;;;;;;4995563;28;20422;-63
2024/03/31 00:13:01;;;;;;;18.42;3.20;;;;;;;;;;4978110;28;20044;-65
2024/03/31 00:15:26;;;;;;;19.40;3.60;;;;;;;;;;4995157;28;20105;-65
2024/03/31 00:17:52;;;;;;;21.55;2.80;;;;;;;;;;4995014;28;20038;-65
2024/03/31 00:20:17;;;;;;;14.13;3.17;;;;;;;;;;4995089;28;20026;-65
2024/03/31 00:22:42;;;;;;;27.52;3.53;;;;;;;;;;4993680;28;20080;-65
2024/03/31 00:25:07;;;;;;;17.48;2.90;;;;;;;;;;4993764;28;20026;-65
2024/03/31 00:27:34;;;;;;;13.60;2.78;;;;;;;;;;4994891;28;20018;-65
2024/03/31 00:29:59;;;;;;;17.08;2.90;;;;;;;;;;4993600;28;20450;-65
2024/03/31 00:32:24;;;;;;;9.75;2.30;;;;;;;;;;4994842;28;20050;-65
2024/03/31 00:34:50;;;;;;;18.38;3.13;;;;;;;;;;4994744;28;20459;-65
2024/03/31 00:37:15;;;;;;;15.23;2.78;;;;;;;;;;4994830;28;20102;-65
2024/03/31 00:39:41;;;;;;;17.55;2.83;;;;;;;;;;4993324;28;20372;-65
2024/03/31 00:42:07;;;;;;;19.05;3.70;;;;;;;;;;4994977;28;20030;-65
2024/03/31 00:44:32;;;;;;;18.70;2.97;;;;;;;;;;4994663;28;20483;-65
2024/03/31 00:46:58;;;;;;;27.70;2.95;;;;;;;;;;4993328;28;20062;-65
2024/03/31 00:49:23;;;;;;;20.42;3.47;;;;;;;;;;4994509;28;20061;-65
2024/03/31 00:51:48;;;;;;;16.15;2.58;;;;;;;;;;4993214;28;20478;-65
2024/03/31 00:54:14;;;;;;;17.92;2.75;;;;;;;;;;4976915;28;20421;-65
2024/03/31 00:56:40;;;;;;;15.77;3.17;;;;;;;;;;4993303;28;20034;-65
2024/03/31 00:59:05;;;;;;;14.38;2.58;;;;;;;;;;4977262;28;20038;-65
2024/03/31 01:01:30;;;;;;;17.52;2.92;;;;;;;;;;4993235;28;20046;-65
2024/03/31 01:03:56;;;;;;;21.90;3.40;;;;;;;;;;4993088;28;20010;-65
2024/03/31 01:06:23;;;;;;;21.17;3.08;;;;;;;;;;4994311;28;20034;-65
2024/03/31 01:08:50;;;;;;;20.13;2.92;;;;;;;;;;4994231;28;20046;-65
2024/03/31 01:13:51;;;;;;;18.50;3.05;;;;;;;;;;4991143;28;20043;-62
2024/03/31 01:16:16;;;;;;;22.60;3.47;;;;;;;;;;5025822;28;20475;-62
2024/03/31 01:18:42;;;;;;;16.83;3.30;;;;;;;;;;5009221;28;20092;-63
2024/03/31 01:21:10;;;;;;;14.55;3.25;;;;;;;;;;4997215;23;20041;-62
2024/03/31 01:23:41;;;;;;;16.80;3.67;;;;;;;;;;4987889;23;21108;-65
2024/03/31 01:26:07;;;;;;;18.77;3.58;;;;;;;;;;4992908;28;20031;-66
2024/03/31 01:28:32;;;;;;;21.48;3.38;;;;;;;;;;4993225;28;20039;-66
2024/03/31 01:30:57;;;;;;;19.42;3.50;;;;;;;;;;4992844;28;20032;-64
2024/03/31 01:33:23;;;;;;;15.93;3.30;;;;;;;;;;4993390;28;20466;-66
2024/03/31 01:35:48;;;;;;;18.00;2.80;;;;;;;;;;4994352;28;20118;-66
2024/03/31 01:38:14;;;;;;;17.40;2.83;;;;;;;;;;4992700;28;20037;-66
2024/03/31 01:40:39;;;;;;;19.67;3.40;;;;;;;;;;4994030;28;20530;-64
2024/03/31 01:43:05;;;;;;;15.63;2.88;;;;;;;;;;4993583;28;20410;-66
2024/03/31 01:45:30;;;;;;;16.65;3.25;;;;;;;;;;4993873;28;20110;-66
2024/03/31 01:47:56;;;;;;;16.13;3.13;;;;;;;;;;4994423;28;20378;-66
2024/03/31 01:50:21;;;;;;;20.00;3.28;;;;;;;;;;4992681;28;20521;-66
2024/03/31 01:52:47;;;;;;;18.52;3.47;;;;;;;;;;4994191;28;20058;-64
2024/03/31 01:55:12;;;;;;;20.67;3.60;;;;;;;;;;4976477;28;20098;-64
2024/03/31 01:57:38;;;;;;;26.30;3.63;;;;;;;;;;4992564;28;20430;-64
2024/03/31 02:00:04;;;;;;;16.73;3.55;;;;;;;;;;4992564;28;20034;-66
2024/03/31 02:02:29;;;;;;;22.50;3.67;;;;;;;;;;5025350;28;20042;-66
2024/03/31 02:04:55;;;;;;;17.88;2.80;;;;;;;;;;4992567;28;20073;-66
2024/03/31 02:07:21;;;;;;;23.90;4.20;;;;;;;;;;4993868;28;20031;-66
2024/03/31 02:09:47;;;;;;;28.48;5.10;;;;;;;;;;4997333;28;20038;-66
2024/03/31 02:12:12;;;;;;;18.05;3.88;;;;;;;;;;4997977;28;20117;-66
2024/03/31 02:14:37;;;;;;;23.52;4.00;;;;;;;;;;4997400;28;20066;-66
2024/03/31 02:17:03;;;;;;;20.30;4.22;;;;;;;;;;4996067;28;20034;-66
2024/03/31 02:19:28;;;;;;;20.80;3.78;;;;;;;;;;4997793;28;20446;-66
2024/03/31 02:21:54;;;;;;;19.35;3.67;;;;;;;;;;4980048;28;20049;-66
2024/03/31 02:24:19;;;;;;;22.70;3.78;;;;;;;;;;4995943;28;20046;-66
2024/03/31 02:26:44;;;;;;;16.92;3.47;;;;;;;;;;4979699;28;20459;-66
2024/03/31 02:29:10;;;;;;;23.50;3.65;;;;;;;;;;4979957;28;20026;-66
2024/03/31 02:31:36;;;;;;;16.77;2.92;;;;;;;;;;4997384;28;20034;-66
2024/03/31 02:34:02;;;;;;;15.02;2.70;;;;;;;;;;4995797;28;20042;-66
2024/03/31 02:36:27;;;;;;;15.68;2.42;;;;;;;;;;4996307;28;20360;-66
2024/03/31 02:38:53;;;;;;;15.45;2.78;;;;;;;;;;4995603;28;20097;-66
2024/03/31 02:41:18;;;;;;;16.85;2.60;;;;;;;;;;4995630;28;20069;-66
2024/03/31 02:43:44;;;;;;;16.77;2.97;;;;;;;;;;4995873;28;20030;-66
2024/03/31 02:46:10;;;;;;;21.02;2.50;;;;;;;;;;4995547;28;20027;-66
2024/03/31 02:48:36;;;;;;;22.80;3.13;;;;;;;;;;4995800;28;20032;-66
2024/03/31 02:51:05;;;;;;;13.65;2.92;;;;;;;;;;4995484;28;20030;-66
2024/03/31 02:53:31;;;;;;;16.58;2.47;;;;;;;;;;4997225;28;20045;-66
2024/03/31 02:55:57;;;;;;;17.15;3.08;;;;;;;;;;4995433;28;20470;-66
2024/03/31 02:58:25;;;;;;;12.10;2.72;;;;;;;;;;4995286;28;20029;-66
2024/03/31 03:00:50;;;;;;;12.43;3.00;;;;;;;;;;4995328;28;20027;-66
2024/03/31 03:03:16;;;;;;;16.73;2.72;;;;;;;;;;4979163;28;20030;-66
2024/03/31 03:05:41;;;;;;;18.02;3.08;;;;;;;;;;4995237;28;20062;-66
2024/03/31 03:08:08;;;;;;;12.40;2.45;;;;;;;;;;4995172;28;20125;-66
2024/03/31 03:10:33;;;;;;;14.23;2.00;;;;;;;;;;4995166;28;20038;-66
2024/03/31 03:12:59;;;;;;;15.60;2.53;;;;;;;;;;4995091;28;20038;-66
2024/03/31 03:15:25;;;;;;;12.55;2.63;;;;;;;;;;4978897;28;20026;-63
2024/03/31 03:17:52;;;;;;;9.30;1.83;;;;;;;;;;5020909;23;20420;-65
2024/03/31 03:20:18;;;;;;;8.38;1.77;;;;;;;;;;4995347;28;20084;-66
2024/03/31 03:22:44;;;;;;;17.17;2.35;;;;;;;;;;4996107;28;20033;-66
2024/03/31 03:25:11;;;;;;;14.02;2.38;;;;;;;;;;4978692;28;20034;-66
2024/03/31 03:27:36;;;;;;;12.30;2.40;;;;;;;;;;4994818;28;20030;-66
2024/03/31 03:30:03;;;;;;;15.77;2.35;;;;;;;;;;5007381;23;20141;-65
2024/03/31 03:32:29;;;;;;;14.73;2.53;;;;;;;;;;4994753;28;20061;-64
2024/03/31 03:34:55;;;;;;;10.00;2.20;;;;;;;;;;4994949;28;20038;-66
2024/03/31 03:37:20;;;;;;;11.82;1.80;;;;;;;;;;4994674;28;20018;-66
2024/03/31 03:39:47;;;;;;;11.77;2.03;;;;;;;;;;5006469;23;20130;-70
2024/03/31 03:44:47;;;;;;;12.90;2.20;;;;;;;;;;5032330;28;20485;-63
2024/03/31 03:47:12;;;;;;;8.77;1.98;;;;;;;;;;5033785;28;20028;-63
2024/03/31 03:49:38;;;;;;;11.75;2.28;;;;;;;;;;5035046;28;20431;-63
2024/03/31 03:52:03;;;;;;;9.88;1.98;;;;;;;;;;5017264;28;20533;-63
2024/03/31 03:54:29;;;;;;;11.23;2.30;;;;;;;;;;5050254;28;20156;-63
2024/03/31 03:56:55;;;;;;;13.25;2.33;;;;;;;;;;5034241;28;20124;-63
2024/03/31 03:59:20;;;;;;;13.85;1.88;;;;;;;;;;5034263;28;20103;-64
2024/03/31 04:01:45;;;;;;;11.70;2.28;;;;;;;;;;5035342;28;20065;-64
2024/03/31 04:04:11;;;;;;;10.48;2.50;;;;;;;;;;5033797;28;20072;-64
2024/03/31 04:06:36;;;;;;;8.57;1.95;;;;;;;;;;5035243;28;20029;-63
2024/03/31 04:09:02;;;;;;;12.98;2.38;;;;;;;;;;5033300;28;20021;-63
2024/03/31 04:11:27;;;;;;;11.80;2.45;;;;;;;;;;5033357;28;20440;-63
2024/03/31 04:13:54;;;;;;;10.30;2.33;;;;;;;;;;5049779;28;20025;-63
2024/03/31 04:16:20;;;;;;;10.80;2.40;;;;;;;;;;5033515;28;20454;-63
2024/03/31 04:18:50;;;;;;;11.57;2.15;;;;;;;;;;5033138;28;20029;-63
2024/03/31 04:21:15;;;;;;;6.93;1.83;;;;;;;;;;5016711;28;20057;-64
2024/03/31 04:23:41;;;;;;;12.65;1.88;;;;;;;;;;5033090;28;20060;-63
2024/03/31 04:26:06;;;;;;;13.50;2.05;;;;;;;;;;5066443;28;20044;-63
2024/03/31 04:28:31;;;;;;;12.48;2.00;;;;;;;;;;5032983;28;20477;-63
2024/03/31 04:31:01;;;;;;;7.78;2.53;;;;;;;;;;5033481;28;20038;-63
2024/03/31 04:33:26;;;;;;;5.03;1.48;;;;;;;;;;5067308;28;20376;-64
2024/03/31 04:35:52;;;;;;;10.10;2.17;;;;;;;;;;5016440;28;20160;-64
2024/03/31 04:38:17;;;;;;;3.45;1.38;;;;;;;;;;5033624;28;20030;-63
2024/03/31 04:40:43;;;;;;;5.57;1.95;;;;;;;;;;5066005;28;20079;-63
2024/03/31 04:43:09;;;;;;;7.50;1.38;;;;;;;;;;5049726;28;20042;-63
2024/03/31 04:45:36;;;;;;;8.57;1.48;;;;;;;;;;5032746;28;20028;-63
2024/03/31 04:48:02;;;;;;;10.05;1.60;;;;;;;;;;5066278;28;20053;-63
2024/03/31 04:50:28;;;;;;;9.25;1.65;;;;;;;;;;5017251;28;20056;-63
2024/03/31 04:52:54;;;;;;;6.95;1.45;;;;;;;;;;5032651;28;20477;-63
2024/03/31 04:55:19;;;;;;;7.70;1.77;;;;;;;;;;5034144;28;20355;-63
2024/03/31 04:57:44;;;;;;;8.60;1.50;;;;;;;;;;5032503;28;20390;-64
2024/03/31 05:00:10;;;;;;;8.43;1.40;;;;;;;;;;5032545;28;20112;-64
2024/03/31 05:02:37;;;;;;;8.65;1.80;;;;;;;;;;5016873;28;20036;-63
2024/03/31 05:05:02;;;;;;;10.55;1.90;;;;;;;;;;5032459;28;20017;-63
2024/03/31 05:07:28;;;;;;;9.52;1.73;;;;;;;;;;5032424;28;20049;-63
2024/03/31 05:09:53;;;;;;;3.55;1.45;;;;;;;;;;5065785;28;20572;-63
2024/03/31 05:12:19;;;;;;;7.97;1.60;;;;;;;;;;5033205;28;20052;-64
2024/03/31 05:14:44;;;;;;;8.20;1.38;;;;;;;;;;5032358;28;20037;-63
2024/03/31 05:17:09;;;;;;;7.93;1.60;;;;;;;;;;5032357;28;20175;-63
2024/03/31 05:19:35;;;;;;;4.85;1.58;;;;;;;;;;5065792;28;20021;-63
2024/03/31 05:22:00;;;;;;;7.25;1.85;;;;;;;;;;5032267;28;20541;-63
2024/03/31 05:24:26;;;;;;;5.35;1.50;;;;;;;;;;5032252;28;20025;-63
2024/03/31 05:26:51;;;;;;;7.20;1.38;;;;;;;;;;5033527;28;20484;-63
2024/03/31 05:29:18;;;;;;;8.30;1.27;;;;;;;;;;5032242;28;20416;-63
2024/03/31 05:31:43;;;;;;;4.93;1.80;;;;;;;;;;5065533;28;20056;-62
2024/03/31 05:34:18;;;;;;;8.65;1.67;;;;;;;;;;5033659;28;20492;-63
2024/03/31 05:36:44;;;;;;;9.30;1.45;;;;;;;;;;5032098;28;20116;-63
2024/03/31 05:39:10;;;;;;;8.20;1.40;;;;;;;;;;5065393;28;20112;-63
2024/03/31 05:41:36;;;;;;;3.03;1.50;;;;;;;;;;5034541;28;20026;-63
2024/03/31 05:44:02;;;;;;;6.20;1.55;;;;;;;;;;5069306;28;20107;-63
2024/03/31 05:46:28;;;;;;;7.05;1.50;;;;;;;;;;5036317;28;20058;-63
2024/03/31 05:49:03;;;;;;;6.05;1.25;;;;;;;;;;5041096;23;20061;-64
2024/03/31 05:51:30;;;;;;;9.00;1.70;;;;;;;;;;5033754;28;20045;-66
2024/03/31 05:53:57;;;;;;;11.05;1.95;;;;;;;;;;5003797;28;20136;-66
2024/03/31 05:56:23;;;;;;;8.98;1.70;;;;;;;;;;5019378;28;20075;-66
2024/03/31 05:58:48;;;;;;;9.82;1.70;;;;;;;;;;5020755;23;20050;-66
2024/03/31 06:01:16;;;;;;;7.10;1.77;;;;;;;;;;4996496;28;20030;-64
2024/03/31 06:03:42;;;;;;;9.35;1.42;;;;;;;;;;5012693;28;20080;-66
2024/03/31 06:06:07;;;;;;;7.85;1.77;;;;;;;;;;4996330;28;20030;-66
2024/03/31 06:08:34;;;;;;;3.40;1.48;;;;;;;;;;4997826;28;20041;-66
2024/03/31 06:11:00;;;;;;;8.55;2.28;;;;;;;;;;4996255;28;20390;-66
2024/03/31 06:13:26;;;;;;;5.63;1.65;;;;;;;;;;4996233;28;20018;-66
2024/03/31 06:15:51;;;;;;;10.77;1.85;;;;;;;;;;4996192;28;20375;-66
2024/03/31 06:18:16;;;;;;;9.75;2.33;;;;;;;;;;4996074;28;20034;-66
2024/03/31 06:20:43;;;;;;;7.25;1.77;;;;;;;;;;4996036;28;20033;-66
2024/03/31 06:23:08;;;;;;;8.93;1.70;;;;;;;;;;4996054;28;20113;-66
2024/03/31 06:25:34;;;;;;;6.53;2.03;;;;;;;;;;4995979;28;20386;-63
2024/03/31 06:27:59;;;;;;;8.30;1.98;;;;;;;;;;5008475;23;20046;-63
2024/03/31 06:30:25;;;;;;;10.60;1.83;;;;;;;;;;5015764;28;20040;-63
2024/03/31 06:32:51;;;;;;;5.78;1.80;;;;;;;;;;5015714;28;20037;-63
2024/03/31 06:35:16;;;;;;;5.80;1.48;;;;;;;;;;5015363;28;20026;-63
2024/03/31 06:37:41;;;;;;;6.18;1.73;;;;;;;;;;5016632;28;20524;-63
2024/03/31 06:40:07;;;;;;;9.13;1.92;;;;;;;;;;5016455;28;20030;-63
2024/03/31 06:42:33;;;;;;;7.10;1.52;;;;;;;;;;5015293;28;20026;-63
2024/03/31 06:44:58;;;;;;;6.32;1.58;;;;;;;;;;5015837;28;20030;-64
2024/03/31 06:47:24;;;;;;;7.82;1.27;;;;;;;;;;5015218;28;20492;-64
2024/03/31 06:49:50;;;;;;;8.38;1.63;;;;;;;;;;5015129;28;20022;-63
2024/03/31 06:52:16;;;;;;;12.73;2.00;;;;;;;;;;5014712;28;20600;-63
2024/03/31 06:54:42;;;;;;;9.35;2.20;;;;;;;;;;5014793;28;20034;-64
2024/03/31 06:57:08;;;;;;;6.72;1.50;;;;;;;;;;5015014;28;20401;-63
2024/03/31 06:59:33;;;;;;;8.13;1.55;;;;;;;;;;5014857;28;20026;-63
2024/03/31 07:01:59;;;;;;;4.13;1.13;;;;;;;;;;4998592;28;20041;-64
2024/03/31 07:04:24;;;;;;;5.82;1.30;;;;;;;;;;4998584;28;20032;-64
2024/03/31 07:06:50;;;;;;;3.60;1.10;;;;;;;;;;5014768;28;20080;-63
2024/03/31 07:09:16;;;;;;;8.52;1.38;;;;;;;;;;5014753;28;20026;-63
2024/03/31 07:11:42;;;;;;;3.80;1.15;;;;;;;;;;5014729;28;20026;-64
2024/03/31 07:14:08;;;;;;;8.15;1.30;;;;;;;;;;5014645;28;20034;-63
2024/03/31 07:16:33;;;;;;;2.67;1.05;;;;;;;;;;5014635;28;20037;-63
2024/03/31 07:18:59;;;;;;;4.18;1.13;;;;;;;;;;4998184;28;20030;-63
2024/03/31 07:21:28;;;;;;;4.10;1.17;;;;;;;;;;5014932;28;20492;-64
2024/03/31 07:23:53;;;;;;;3.47;0.93;;;;;;;;;;5014497;28;20053;-63
2024/03/31 07:26:20;;;;;;;4.03;1.08;;;;;;;;;;5016276;28;20057;-63
2024/03/31 07:28:45;;;;;;;4.53;1.13;;;;;;;;;;5014247;28;20049;-63
2024/03/31 07:31:10;;;;;;;3.72;1.20;;;;;;;;;;5014360;28;20037;-63
2024/03/31 07:33:36;;;;;;;6.63;1.25;;;;;;;;;;5014275;28;20056;-63
2024/03/31 07:36:01;;;;;;;6.95;1.17;;;;;;;;;;5014231;28;20037;-63
2024/03/31 07:38:27;;;;;;;8.75;1.50;;;;;;;;;;5015888;28;20374;-63
2024/03/31 07:40:52;;;;;;;6.65;1.35;;;;;;;;;;5015457;28;20021;-63
2024/03/31 07:43:25;;;;;;;8.50;1.20;;;;;;;;;;5015905;28;20133;-63
2024/03/31 07:45:50;;;;;;;4.57;1.20;;;;;;;;;;5014088;28;20059;-63
2024/03/31 07:48:16;;;;;;;6.03;1.42;;;;;;;;;;5014100;28;20030;-63
2024/03/31 07:50:44;;;;;;;4.50;1.10;;;;;;;;;;5015833;28;20081;-63
2024/03/31 07:53:10;;;;;;;4.53;0.88;;;;;;;;;;5015149;28;20053;-63
2024/03/31 07:55:35;;;;;;;15.43;1.67;;;;;;;;;;5015161;28;20474;-63
2024/03/31 07:58:00;;;;;;;7.95;1.13;;;;;;;;;;5015010;28;20029;-63
2024/03/31 08:00:26;;;;;;;4.45;0.98;;;;;;;;;;5015029;28;20026;-63
2024/03/31 08:02:51;;;;;;;6.47;1.30;;;;;;;;;;5015321;28;20020;-63
2024/03/31 08:05:17;;;;;;;3.28;1.05;;;;;;;;;;5014237;28;20104;-63
2024/03/31 08:07:43;;;;;;;3.72;0.80;;;;;;;;;;5013739;28;20454;-63
2024/03/31 08:10:08;;;;;;;1.55;0.68;;;;;;;;;;5014917;28;20072;-63
2024/03/31 08:12:33;;;;;;;3.45;1.20;;;;;;;;;;5013706;28;20395;-63
2024/03/31 08:14:59;;;;;;;6.00;1.50;;;;;;;;;;5013543;28;20025;-63
2024/03/31 08:17:24;;;;;;;2.63;1.23;;;;;;;;;;5013491;28;20038;-64
2024/03/31 08:19:50;;;;;;;9.57;1.80;;;;;;;;;;5014680;28;20030;-63
2024/03/31 08:22:16;;;;;;;8.18;1.45;;;;;;;;;;5014686;28;20501;-63
2024/03/31 08:24:41;;;;;;;4.40;1.20;;;;;;;;;;5014730;28;20018;-64
2024/03/31 08:27:08;;;;;;;8.65;1.25;;;;;;;;;;5013668;28;20052;-63
2024/03/31 08:29:33;;;;;;;12.95;1.58;;;;;;;;;;5015363;28;20034;-63
2024/03/31 08:31:58;;;;;;;7.50;1.40;;;;;;;;;;5014526;28;20480;-63
2024/03/31 08:34:24;;;;;;;4.75;1.23;;;;;;;;;;5013177;28;20045;-63
2024/03/31 08:36:49;;;;;;;4.57;1.50;;;;;;;;;;5013304;28;20104;-63
2024/03/31 08:39:14;;;;;;;8.45;1.42;;;;;;;;;;5014299;28;20398;-63
2024/03/31 08:41:47;;;;;;;9.35;1.45;;;;;;;;;;5013151;28;20071;-63
2024/03/31 08:44:14;;;;;;;10.20;1.35;;;;;;;;;;5014604;28;20029;-63
2024/03/31 08:53:50;;;;;;;8.77;1.50;;;;;;;;;;5014376;28;20565;-63
2024/03/31 08:56:16;;;;;;;8.63;1.65;;;;;;;;;;4996564;28;20042;-63
2024/03/31 08:58:42;;;;;;;6.15;1.33;;;;;;;;;;5014065;28;20036;-63
2024/03/31 09:01:09;;;;;;;7.38;1.50;;;;;;;;;;5014085;28;20469;-63
2024/03/31 09:03:35;;;;;;;13.05;1.52;;;;;;;;;;5014614;28;20030;-63
2024/03/31 09:06:00;;;;;;;14.38;1.63;;;;;;;;;;5014248;28;20041;-63
2024/03/31 09:08:26;;;;;;;10.65;2.10;;;;;;;;;;5013941;28;20037;-63
2024/03/31 09:10:51;;;;;;;8.68;1.67;;;;;;;;;;5014234;28;20025;-64
2024/03/31 09:15:45;;;;;;;1.92;0.75;;;;;;;;;;5022103;23;20489;-65
2024/03/31 09:18:11;;;;;;;11.38;1.65;;;;;;;;;;5033519;28;20083;-66
2024/03/31 09:20:36;;;;;;;7.30;1.38;;;;;;;;;;5033606;28;20033;-66
2024/03/31 09:23:02;;;;;;;15.20;1.80;;;;;;;;;;5033559;28;20100;-66
2024/03/31 09:25:28;;;;;;;12.55;1.88;;;;;;;;;;5033811;28;20045;-66
2024/03/31 09:27:54;;;;;;;10.23;1.75;;;;;;;;;;5032230;28;20052;-66
2024/03/31 09:30:22;;;;;;;13.15;1.92;;;;;;;;;;5033773;28;20056;-66
2024/03/31 09:32:48;;;;;;;15.05;2.42;;;;;;;;;;5033722;28;20484;-66
2024/03/31 09:35:15;;;;;;;12.98;1.88;;;;;;;;;;5032305;28;20026;-66
2024/03/31 09:37:40;;;;;;;13.65;2.05;;;;;;;;;;5032171;28;20091;-66
2024/03/31 09:40:05;;;;;;;2.50;0.60;;;;;;;;;;5033638;28;20120;-65
2024/03/31 09:42:31;;;;;;;12.52;2.35;;;;;;;;;;5033924;28;20033;-66
2024/03/31 09:44:57;;;;;;;5.40;1.00;;;;;;;;;;5033904;28;20022;-66
2024/03/31 09:47:25;;;;;;;8.82;1.50;;;;;;;;;;5032891;28;20022;-66
2024/03/31 09:50:10;;;;;;;14.52;2.08;;;;;;;;;;5033294;28;20417;-66
2024/03/31 09:52:39;;;;;;;12.05;1.42;;;;;;;;;;5032855;28;20072;-66
2024/03/31 09:55:07;;;;;;;12.73;2.15;;;;;;;;;;5033820;28;20037;-66
2024/03/31 09:57:36;;;;;;;19.70;2.30;;;;;;;;;;5032263;28;20029;-66
2024/03/31 10:00:03;;;;;;;11.07;2.03;;;;;;;;;;5033122;28;20042;-66
2024/03/31 10:02:33;;;;;;;15.82;3.50;;;;;;;;;;5033176;28;20050;-66
2024/03/31 10:04:59;;;;;;;16.65;2.90;;;;;;;;;;5033192;28;20477;-66
2024/03/31 10:07:25;;;;;;;17.65;2.20;;;;;;;;;;5033164;28;20389;-66
2024/03/31 10:09:52;;;;;;;3.05;0.77;;;;;;;;;;5033128;28;20470;-66
2024/03/31 10:12:18;;;;;;;21.67;2.63;;;;;;;;;;5032404;28;20029;-66
2024/03/31 10:14:45;;;;;;;18.83;2.47;;;;;;;;;;5033605;28;20047;-66
2024/03/31 10:17:10;;;;;;;20.55;2.65;;;;;;;;;;5031694;28;20049;-66
2024/03/31 10:19:36;;;;;;;20.02;2.53;;;;;;;;;;5032943;28;20573;-66
2024/03/31 10:22:01;;;;;;;32.42;3.30;;;;;;;;;;5033276;28;20025;-66
2024/03/31 10:24:29;;;;;;;20.80;1.75;;;;;;;;;;5033300;28;20048;-66
2024/03/31 10:26:55;;;;;;;1.98;0.57;;;;;;;;;;5031749;28;20014;-66
2024/03/31 10:29:21;;;;;;;25.35;2.65;;;;;;;;;;5035760;28;20041;-66
2024/03/31 10:31:46;;;;;;;13.48;1.67;;;;;;;;;;5036846;28;20021;-66
2024/03/31 10:34:12;;;;;;;6.15;0.80;;;;;;;;;;5035352;28;20040;-66
2024/03/31 10:39:25;;;;;;;14.60;2.38;;;;;;;;;;4984996;23;20137;-63
2024/03/31 10:41:50;;;;;;;19.75;2.90;;;;;;;;;;4977807;28;20121;-64
2024/03/31 10:44:16;;;;;;;25.45;3.45;;;;;;;;;;4977761;28;20106;-63
2024/03/31 10:46:44;;;;;;;8.60;1.52;;;;;;;;;;4977425;28;20471;-63
2024/03/31 10:49:10;;;;;;;6.32;1.10;;;;;;;;;;4977681;28;20039;-63
2024/03/31 10:51:40;;;;;;;5.10;1.58;;;;;;;;;;4977303;28;20390;-63
2024/03/31 10:54:24;;;;;;;24.35;2.65;;;;;;;;;;4977304;28;20432;-63
2024/03/31 10:56:57;;;;;;;13.35;1.90;;;;;;;;;;4977531;28;20023;-63
2024/03/31 10:59:26;;;;;;;21.48;2.45;;;;;;;;;;4977372;28;20050;-63
2024/03/31 11:01:51;;;;;;;0.57;0.52;;;;;;;;;;4977441;28;20037;-63
2024/03/31 11:04:19;;;;;;;14.88;1.63;;;;;;;;;;4977644;28;20015;-63
2024/03/31 11:06:46;;;;;;;7.03;0.95;;;;;;;;;;4992371;28;20452;-63
2024/03/31 11:09:12;;;;;;;12.07;1.42;;;;;;;;;;4977025;28;20237;-63
2024/03/31 11:11:38;;;;;;;11.95;1.83;;;;;;;;;;4977254;28;20027;-63
2024/03/31 11:14:04;;;;;;;6.60;1.38;;;;;;;;;;4977242;28;20550;-63
2024/03/31 11:16:31;;;;;;;7.72;0.90;;;;;;;;;;4959485;28;20402;-63
2024/03/31 11:18:56;;;;;;;2.28;1.05;;;;;;;;;;4992341;28;20046;-64
2024/03/31 11:21:28;;;;;;;23.77;2.60;;;;;;;;;;4977061;28;20028;-63
2024/03/31 11:23:54;;;;;;;6.63;1.65;;;;;;;;;;4976752;28;20041;-63
2024/03/31 11:26:19;;;;;;;34.67;3.38;;;;;;;;;;4977002;28;20378;-63
2024/03/31 11:28:45;;;;;;;0.55;0.55;;;;;;;;;;4976660;28;20019;-64
2024/03/31 11:31:11;;;;;;;2.03;1.13;;;;;;;;;;4976870;28;20360;-64
2024/03/31 11:33:37;;;;;;;0.43;0.43;;;;;;;;;;5049424;22;20111;-63
2024/03/31 11:36:03;;;;;;;50.05;4.65;;;;;;;;;;5035588;28;20028;-63
2024/03/31 11:38:29;;;;;;;17.45;2.50;;;;;;;;;;5035283;28;20132;-63
2024/03/31 11:40:55;;;;;;;48.28;5.07;;;;;;;;;;5035504;28;20096;-63
2024/03/31 11:43:20;;;;;;;39.08;4.05;;;;;;;;;;5017796;28;20462;-63
2024/03/31 11:45:45;;;;;;;28.38;3.53;;;;;;;;;;5035101;28;20040;-63
2024/03/31 11:48:11;;;;;;;22.15;2.70;;;;;;;;;;5035098;28;20071;-63
2024/03/31 11:50:36;;;;;;;2.05;0.70;;;;;;;;;;5017278;28;20021;-63
2024/03/31 11:53:05;;;;;;;21.77;2.97;;;;;;;;;;5035242;28;20051;-63
2024/03/31 11:55:30;;;;;;;18.42;2.40;;;;;;;;;;5035224;28;20025;-64
2024/03/31 11:57:55;;;;;;;4.53;1.55;;;;;;;;;;5017724;28;20377;-63
2024/03/31 12:00:21;;;;;;;14.57;2.40;;;;;;;;;;5034735;28;20470;-63
2024/03/31 12:02:46;;;;;;;5.50;1.17;;;;;;;;;;5035123;28;20155;-63
2024/03/31 12:05:21;;;;;;;7.32;1.65;;;;;;;;;;5017432;28;20033;-63
2024/03/31 12:07:47;;;;;;;4.53;0.73;;;;;;;;;;5017605;28;20103;-63
2024/03/31 12:10:13;;;;;;;9.23;1.00;;;;;;;;;;5034691;28;20025;-63
2024/03/31 12:12:39;;;;;;;17.83;2.53;;;;;;;;;;5034855;28;20033;-63
2024/03/31 12:15:05;;;;;;;41.42;4.10;;;;;;;;;;5034592;28;20091;-63
2024/03/31 12:17:30;;;;;;;25.02;3.03;;;;;;;;;;5034531;28;20033;-63
2024/03/31 12:19:56;;;;;;;45.83;5.32;;;;;;;;;;5033219;28;20033;-64
2024/03/31 12:22:22;;;;;;;9.93;1.48;;;;;;;;;;5035015;28;20018;-63
2024/03/31 12:24:48;;;;;;;27.75;3.53;;;;;;;;;;5034675;28;20032;-63
2024/03/31 12:27:13;;;;;;;14.38;2.67;;;;;;;;;;5034906;28;20021;-63
2024/03/31 12:29:44;;;;;;;5.40;1.48;;;;;;;;;;5034568;28;20025;-63
2024/03/31 12:32:11;;;;;;;7.97;1.45;;;;;;;;;;5034289;28;20034;-63
2024/03/31 12:34:37;;;;;;;17.85;2.78;;;;;;;;;;5016748;28;20073;-63
2024/03/31 12:37:02;;;;;;;14.25;2.47;;;;;;;;;;5034432;28;20034;-63
2024/03/31 12:39:29;;;;;;;7.10;1.67;;;;;;;;;;5016392;28;20044;-63
2024/03/31 12:41:54;;;;;;;14.15;2.38;;;;;;;;;;5016479;28;20151;-63
2024/03/31 12:44:19;;;;;;;33.92;4.25;;;;;;;;;;5034297;28;20484;-63
2024/03/31 12:46:45;;;;;;;6.25;1.52;;;;;;;;;;5049391;28;20432;-63
2024/03/31 12:49:12;;;;;;;10.32;1.92;;;;;;;;;;5034276;28;20057;-63
2024/03/31 12:51:39;;;;;;;35.88;3.90;;;;;;;;;;5033926;28;20096;-64
2024/03/31 12:54:05;;;;;;;22.40;2.63;;;;;;;;;;5032110;23;20053;-65
2024/03/31 12:56:31;;;;;;;29.63;3.78;;;;;;;;;;5033842;28;20067;-66
2024/03/31 12:58:57;;;;;;;11.77;1.80;;;;;;;;;;5034316;28;20087;-66
2024/03/31 13:01:23;;;;;;;18.58;2.88;;;;;;;;;;5049644;28;20026;-66
2024/03/31 13:03:48;;;;;;;43.13;3.95;;;;;;;;;;5033792;28;20385;-66
2024/03/31 13:06:14;;;;;;;33.63;4.32;;;;;;;;;;5034265;28;20041;-66
2024/03/31 13:08:43;;;;;;;5.30;1.25;;;;;;;;;;5016555;28;20082;-66
2024/03/31 13:11:10;;;;;;;18.95;2.90;;;;;;;;;;5016109;28;20175;-66
2024/03/31 13:13:37;;;;;;;28.70;3.67;;;;;;;;;;5033643;28;20057;-65
2024/03/31 13:16:03;;;;;;;33.03;4.10;;;;;;;;;;5032450;28;20029;-66
2024/03/31 13:18:28;;;;;;;1.17;0.80;;;;;;;;;;5033806;28;20468;-66
2024/03/31 13:20:56;;;;;;;42.38;4.45;;;;;;;;;;5034107;28;20039;-66
2024/03/31 13:23:23;;;;;;;12.23;1.73;;;;;;;;;;5033549;28;20075;-66
2024/03/31 13:25:49;;;;;;;42.38;3.88;;;;;;;;;;5033785;28;20112;-66
2024/03/31 13:28:14;;;;;;;36.22;5.50;;;;;;;;;;5033465;28;20550;-64
2024/03/31 13:30:41;;;;;;;17.63;2.63;;;;;;;;;;5033634;28;20041;-66
2024/03/31 13:33:06;;;;;;;17.67;2.58;;;;;;;;;;5015798;28;20470;-66
2024/03/31 13:35:32;;;;;;;8.38;2.28;;;;;;;;;;5033682;28;20068;-66
2024/03/31 13:37:58;;;;;;;17.40;2.58;;;;;;;;;;5033424;28;20021;-66
2024/03/31 13:40:24;;;;;;;16.48;2.30;;;;;;;;;;5033287;28;20517;-66
2024/03/31 13:42:50;;;;;;;3.80;1.30;;;;;;;;;;5016060;28;20036;-66
2024/03/31 13:45:16;;;;;;;15.40;2.03;;;;;;;;;;5033317;28;20035;-66
2024/03/31 13:47:41;;;;;;;6.97;1.45;;;;;;;;;;5033319;28;20456;-66
2024/03/31 13:50:06;;;;;;;20.17;2.50;;;;;;;;;;5033856;28;20025;-66
2024/03/31 13:52:32;;;;;;;41.17;4.18;;;;;;;;;;5033248;28;20025;-66
2024/03/31 13:55:08;;;;;;;21.25;3.58;;;;;;;;;;5033284;28;20065;-66
2024/03/31 13:57:36;;;;;;;34.00;4.57;;;;;;;;;;5033740;28;20048;-66
2024/03/31 14:00:05;;;;;;;19.63;3.35;;;;;;;;;;5033386;28;20445;-66
2024/03/31 14:02:37;;;;;;;49.53;5.45;;;;;;;;;;5016749;28;20164;-66
2024/03/31 14:05:03;;;;;;;20.63;3.67;;;;;;;;;;5037055;28;20065;-66
2024/03/31 14:07:28;;;;;;;32.83;3.53;;;;;;;;;;5037271;28;20033;-66
2024/03/31 14:09:54;;;;;;;34.05;4.88;;;;;;;;;;5052323;28;20040;-66
2024/03/31 14:12:20;;;;;;;44.70;5.20;;;;;;;;;;5037193;28;20469;-66
2024/03/31 14:14:47;;;;;;;32.78;4.32;;;;;;;;;;5019126;28;20040;-66
2024/03/31 14:17:13;;;;;;;38.00;5.22;;;;;;;;;;5036842;28;20473;-66
2024/03/31 14:19:38;;;;;;;18.75;2.40;;;;;;;;;;5036694;28;20029;-66
2024/03/31 14:22:03;;;;;;;30.42;3.22;;;;;;;;;;5019386;28;20024;-66
2024/03/31 14:24:29;;;;;;;31.23;3.78;;;;;;;;;;5052052;28;20068;-66
2024/03/31 14:26:54;;;;;;;24.95;2.92;;;;;;;;;;5036618;28;20028;-66
2024/03/31 14:29:19;;;;;;;24.60;3.95;;;;;;;;;;5036885;28;20021;-66
2024/03/31 14:31:45;;;;;;;38.95;4.70;;;;;;;;;;5036818;28;20034;-66
2024/03/31 14:34:10;;;;;;;16.10;2.47;;;;;;;;;;5018867;28;20034;-66
2024/03/31 14:36:35;;;;;;;16.05;2.55;;;;;;;;;;5036774;28;20523;-65
2024/03/31 14:39:01;;;;;;;8.43;2.30;;;;;;;;;;5036336;28;20385;-66
2024/03/31 14:41:26;;;;;;;38.78;4.57;;;;;;;;;;5036623;28;20381;-66
2024/03/31 14:43:51;;;;;;;19.60;3.08;;;;;;;;;;5018570;28;20033;-66
2024/03/31 14:46:17;;;;;;;35.80;4.38;;;;;;;;;;5036554;28;20107;-66